sensor_id;sensor_type;location;lat;lon;timestamp;pressure;altitude;pressure_sealevel;temperature;humidity
68380;BME280;57711;53.196;19.638;2022-11-20T00:01:06;99879.00;;;-0.79;62.29
68380;BME280;57711;53.196;19.638;2022-11-20T00:03:33;99877.92;;;-0.75;62.19
68380;BME280;57711;53.196;19.638;2022-11-20T00:06:06;99874.34;;;-0.70;62.24
68380;BME280;57711;53.196;19.638;2022-11-20T00:08:34;99872.55;;;-0.66;62.33
68380;BME280;57711;53.196;19.638;2022-11-20T00:11:09;99873.72;;;-0.68;62.18
68380;BME280;57711;53.196;19.638;2022-11-20T00:13:46;99872.67;;;-0.73;62.10
68380;BME280;57711;53.196;19.638;2022-11-20T00:16:15;99870.19;;;-0.76;62.18
68380;BME280;57711;53.196;19.638;2022-11-20T00:18:43;99870.92;;;-0.80;62.27
68380;BME280;57711;53.196;19.638;2022-11-20T00:21:14;99871.02;;;-0.83;62.30
68380;BME280;57711;53.196;19.638;2022-11-20T00:23:42;99868.85;;;-0.82;62.36
68380;BME280;57711;53.196;19.638;2022-11-20T00:26:11;99869.73;;;-0.82;62.29
68380;BME280;57711;53.196;19.638;2022-11-20T00:28:39;99868.70;;;-0.86;62.34
68380;BME280;57711;53.196;19.638;2022-11-20T00:31:09;99867.56;;;-0.84;62.38
68380;BME280;57711;53.196;19.638;2022-11-20T00:33:37;99868.34;;;-0.82;62.40
68380;BME280;57711;53.196;19.638;2022-11-20T00:36:06;99865.61;;;-0.81;62.42
68380;BME280;57711;53.196;19.638;2022-11-20T00:38:34;99867.84;;;-0.79;62.29
68380;BME280;57711;53.196;19.638;2022-11-20T00:41:04;99864.55;;;-0.73;62.47
68380;BME280;57711;53.196;19.638;2022-11-20T00:43:31;99864.29;;;-0.64;62.58
68380;BME280;57711;53.196;19.638;2022-11-20T00:46:04;99860.96;;;-0.58;62.52
68380;BME280;57711;53.196;19.638;2022-11-20T00:48:32;99861.61;;;-0.53;62.60
68380;BME280;57711;53.196;19.638;2022-11-20T00:51:00;99858.39;;;-0.49;62.63
68380;BME280;57711;53.196;19.638;2022-11-20T00:53:27;99857.84;;;-0.46;62.71
68380;BME280;57711;53.196;19.638;2022-11-20T00:56:03;99858.77;;;-0.43;62.60
68380;BME280;57711;53.196;19.638;2022-11-20T00:58:35;99863.27;;;-0.47;62.44
68380;BME280;57711;53.196;19.638;2022-11-20T01:01:05;99863.45;;;-0.54;62.60
68380;BME280;57711;53.196;19.638;2022-11-20T01:03:39;99860.30;;;-0.56;62.67
68380;BME280;57711;53.196;19.638;2022-11-20T01:06:11;99859.67;;;-0.57;62.62
68380;BME280;57711;53.196;19.638;2022-11-20T01:08:38;99861.21;;;-0.60;62.56
68380;BME280;57711;53.196;19.638;2022-11-20T01:11:09;99863.70;;;-0.63;62.64
68380;BME280;57711;53.196;19.638;2022-11-20T01:13:36;99865.45;;;-0.66;62.65
68380;BME280;57711;53.196;19.638;2022-11-20T01:18:31;99859.77;;;-0.66;62.66
68380;BME280;57711;53.196;19.638;2022-11-20T01:21:03;99859.76;;;-0.59;62.69
68380;BME280;57711;53.196;19.638;2022-11-20T01:23:32;99861.23;;;-0.56;62.62
68380;BME280;57711;53.196;19.638;2022-11-20T01:26:04;99857.11;;;-0.52;62.74
68380;BME280;57711;53.196;19.638;2022-11-20T01:28:32;99851.27;;;-0.52;62.62
68380;BME280;57711;53.196;19.638;2022-11-20T01:30:59;99854.36;;;-0.58;62.60
68380;BME280;57711;53.196;19.638;2022-11-20T01:33:27;99858.06;;;-0.57;62.74
68380;BME280;57711;53.196;19.638;2022-11-20T01:36:03;99859.41;;;-0.59;62.67
68380;BME280;57711;53.196;19.638;2022-11-20T01:38:31;99859.27;;;-0.57;62.90
68380;BME280;57711;53.196;19.638;2022-11-20T01:40:58;99859.17;;;-0.62;62.71
68380;BME280;57711;53.196;19.638;2022-11-20T01:43:26;99862.29;;;-0.71;62.69
68380;BME280;57711;53.196;19.638;2022-11-20T01:46:18;99856.11;;;-0.76;62.72
68380;BME280;57711;53.196;19.638;2022-11-20T01:49:18;99853.55;;;-0.73;62.84
68380;BME280;57711;53.196;19.638;2022-11-20T01:51:50;99856.30;;;-0.75;62.78
68380;BME280;57711;53.196;19.638;2022-11-20T01:54:23;99855.60;;;-0.76;62.80
68380;BME280;57711;53.196;19.638;2022-11-20T01:56:57;99855.66;;;-0.73;62.74
68380;BME280;57711;53.196;19.638;2022-11-20T01:59:27;99852.58;;;-0.71;62.73
68380;BME280;57711;53.196;19.638;2022-11-20T02:01:56;99849.94;;;-0.72;62.69
68380;BME280;57711;53.196;19.638;2022-11-20T02:04:24;99849.81;;;-0.69;62.77
68380;BME280;57711;53.196;19.638;2022-11-20T02:06:57;99849.17;;;-0.71;62.74
68380;BME280;57711;53.196;19.638;2022-11-20T02:09:27;99844.11;;;-0.73;62.85
68380;BME280;57711;53.196;19.638;2022-11-20T02:11:55;99844.28;;;-0.73;62.87
68380;BME280;57711;53.196;19.638;2022-11-20T02:14:22;99847.80;;;-0.76;62.78
68380;BME280;57711;53.196;19.638;2022-11-20T02:16:50;99847.23;;;-0.83;62.69
68380;BME280;57711;53.196;19.638;2022-11-20T02:19:24;99841.62;;;-0.87;62.88
68380;BME280;57711;53.196;19.638;2022-11-20T02:22:01;99842.02;;;-0.81;63.06
68380;BME280;57711;53.196;19.638;2022-11-20T02:24:30;99832.74;;;-0.76;62.97
68380;BME280;57711;53.196;19.638;2022-11-20T02:27:00;99828.96;;;-0.71;62.99
68380;BME280;57711;53.196;19.638;2022-11-20T02:29:35;99827.39;;;-0.68;62.97
68380;BME280;57711;53.196;19.638;2022-11-20T02:32:04;99829.56;;;-0.62;62.94
68380;BME280;57711;53.196;19.638;2022-11-20T02:34:31;99836.76;;;-0.64;62.82
68380;BME280;57711;53.196;19.638;2022-11-20T02:36:59;99837.14;;;-0.72;62.87
68380;BME280;57711;53.196;19.638;2022-11-20T02:39:27;99838.99;;;-0.73;62.94
68380;BME280;57711;53.196;19.638;2022-11-20T02:41:56;99841.00;;;-0.75;62.87
68380;BME280;57711;53.196;19.638;2022-11-20T02:44:23;99839.89;;;-0.81;62.93
68380;BME280;57711;53.196;19.638;2022-11-20T02:46:50;99838.17;;;-0.82;63.09
68380;BME280;57711;53.196;19.638;2022-11-20T02:49:18;99839.59;;;-0.82;62.98
68380;BME280;57711;53.196;19.638;2022-11-20T02:51:45;99835.65;;;-0.89;62.97
68380;BME280;57711;53.196;19.638;2022-11-20T02:54:12;99836.77;;;-0.86;63.16
68380;BME280;57711;53.196;19.638;2022-11-20T02:56:40;99839.15;;;-0.80;63.00
68380;BME280;57711;53.196;19.638;2022-11-20T02:59:07;99837.08;;;-0.74;62.99
68380;BME280;57711;53.196;19.638;2022-11-20T03:01:34;99834.29;;;-0.68;63.12
68380;BME280;57711;53.196;19.638;2022-11-20T03:04:02;99835.09;;;-0.63;63.09
68380;BME280;57711;53.196;19.638;2022-11-20T03:06:29;99832.20;;;-0.62;63.08
68380;BME280;57711;53.196;19.638;2022-11-20T03:08:56;99834.73;;;-0.59;63.08
68380;BME280;57711;53.196;19.638;2022-11-20T03:11:23;99829.20;;;-0.59;63.13
68380;BME280;57711;53.196;19.638;2022-11-20T03:13:51;99827.83;;;-0.56;63.18
68380;BME280;57711;53.196;19.638;2022-11-20T03:16:21;99829.36;;;-0.58;63.05
68380;BME280;57711;53.196;19.638;2022-11-20T03:18:49;99828.00;;;-0.67;63.03
68380;BME280;57711;53.196;19.638;2022-11-20T03:21:16;99822.84;;;-0.70;63.12
68380;BME280;57711;53.196;19.638;2022-11-20T03:23:43;99829.71;;;-0.72;63.11
68380;BME280;57711;53.196;19.638;2022-11-20T03:28:46;99831.23;;;-0.74;63.17
68380;BME280;57711;53.196;19.638;2022-11-20T03:31:16;99834.89;;;-0.73;63.13
68380;BME280;57711;53.196;19.638;2022-11-20T03:33:43;99837.65;;;-0.68;63.18
68380;BME280;57711;53.196;19.638;2022-11-20T03:36:12;99837.09;;;-0.71;62.96
68380;BME280;57711;53.196;19.638;2022-11-20T03:38:41;99831.70;;;-0.73;63.03
68380;BME280;57711;53.196;19.638;2022-11-20T03:41:21;99832.70;;;-0.76;63.15
68380;BME280;57711;53.196;19.638;2022-11-20T03:43:49;99826.55;;;-0.73;63.29
68380;BME280;57711;53.196;19.638;2022-11-20T03:46:17;99822.85;;;-0.77;63.10
68380;BME280;57711;53.196;19.638;2022-11-20T03:48:44;99823.73;;;-0.77;63.24
68380;BME280;57711;53.196;19.638;2022-11-20T03:51:28;99823.73;;;-0.81;63.17
68380;BME280;57711;53.196;19.638;2022-11-20T03:53:57;99816.27;;;-0.81;63.25
68380;BME280;57711;53.196;19.638;2022-11-20T03:56:27;99813.79;;;-0.81;63.33
68380;BME280;57711;53.196;19.638;2022-11-20T03:58:55;99815.66;;;-0.83;63.25
68380;BME280;57711;53.196;19.638;2022-11-20T04:01:25;99811.64;;;-0.77;63.34
68380;BME280;57711;53.196;19.638;2022-11-20T04:03:53;99810.60;;;-0.77;63.12
68380;BME280;57711;53.196;19.638;2022-11-20T04:06:23;99810.38;;;-0.80;63.10
68380;BME280;57711;53.196;19.638;2022-11-20T04:08:53;99812.02;;;-0.81;63.07
68380;BME280;57711;53.196;19.638;2022-11-20T04:11:24;99811.16;;;-0.82;63.08
68380;BME280;57711;53.196;19.638;2022-11-20T04:13:54;99816.17;;;-0.82;63.13
68380;BME280;57711;53.196;19.638;2022-11-20T04:16:23;99815.80;;;-0.82;63.27
68380;BME280;57711;53.196;19.638;2022-11-20T04:18:55;99814.87;;;-0.81;63.24
68380;BME280;57711;53.196;19.638;2022-11-20T04:21:24;99810.14;;;-0.79;63.28
68380;BME280;57711;53.196;19.638;2022-11-20T04:23:52;99813.36;;;-0.76;63.44
68380;BME280;57711;53.196;19.638;2022-11-20T04:26:21;99807.39;;;-0.73;63.41
68380;BME280;57711;53.196;19.638;2022-11-20T04:28:49;99809.48;;;-0.76;63.28
68380;BME280;57711;53.196;19.638;2022-11-20T04:31:20;99806.87;;;-0.77;63.29
68380;BME280;57711;53.196;19.638;2022-11-20T04:33:47;99802.55;;;-0.72;63.26
68380;BME280;57711;53.196;19.638;2022-11-20T04:36:17;99802.40;;;-0.69;63.14
68380;BME280;57711;53.196;19.638;2022-11-20T04:38:45;99804.26;;;-0.67;63.18
68380;BME280;57711;53.196;19.638;2022-11-20T04:41:17;99805.17;;;-0.64;63.21
68380;BME280;57711;53.196;19.638;2022-11-20T04:43:50;99806.93;;;-0.64;63.32
68380;BME280;57711;53.196;19.638;2022-11-20T04:46:18;99807.87;;;-0.65;63.22
68380;BME280;57711;53.196;19.638;2022-11-20T04:48:46;99808.34;;;-0.75;63.08
68380;BME280;57711;53.196;19.638;2022-11-20T04:51:14;99809.65;;;-0.79;63.14
68380;BME280;57711;53.196;19.638;2022-11-20T04:53:41;99807.83;;;-0.82;63.24
68380;BME280;57711;53.196;19.638;2022-11-20T04:56:10;99806.80;;;-0.79;63.42
68380;BME280;57711;53.196;19.638;2022-11-20T04:58:38;99804.98;;;-0.86;63.29
68380;BME280;57711;53.196;19.638;2022-11-20T05:01:06;99803.55;;;-0.86;63.28
68380;BME280;57711;53.196;19.638;2022-11-20T05:03:33;99804.39;;;-0.81;63.38
68380;BME280;57711;53.196;19.638;2022-11-20T05:06:08;99804.81;;;-0.75;63.32
68380;BME280;57711;53.196;19.638;2022-11-20T05:08:35;99803.55;;;-0.74;63.19
68380;BME280;57711;53.196;19.638;2022-11-20T05:11:04;99803.44;;;-0.72;63.35
68380;BME280;57711;53.196;19.638;2022-11-20T05:13:31;99801.84;;;-0.76;63.27
68380;BME280;57711;53.196;19.638;2022-11-20T05:16:03;99799.70;;;-0.80;63.32
68380;BME280;57711;53.196;19.638;2022-11-20T05:18:31;99796.55;;;-0.80;63.38
68380;BME280;57711;53.196;19.638;2022-11-20T05:20:58;99797.41;;;-0.80;63.54
68380;BME280;57711;53.196;19.638;2022-11-20T05:23:25;99803.89;;;-0.82;63.30
68380;BME280;57711;53.196;19.638;2022-11-20T05:25:57;99804.94;;;-0.88;63.41
68380;BME280;57711;53.196;19.638;2022-11-20T05:28:27;99805.23;;;-0.87;63.55
68380;BME280;57711;53.196;19.638;2022-11-20T05:30:54;99797.13;;;-0.88;63.54
68380;BME280;57711;53.196;19.638;2022-11-20T05:33:22;99793.24;;;-0.85;63.63
68380;BME280;57711;53.196;19.638;2022-11-20T05:35:49;99791.16;;;-0.83;63.47
68380;BME280;57711;53.196;19.638;2022-11-20T05:38:16;99791.58;;;-0.80;63.40
68380;BME280;57711;53.196;19.638;2022-11-20T05:40:43;99788.70;;;-0.76;63.43
68380;BME280;57711;53.196;19.638;2022-11-20T05:43:10;99788.05;;;-0.70;63.52
68380;BME280;57711;53.196;19.638;2022-11-20T05:45:37;99785.64;;;-0.68;63.38
68380;BME280;57711;53.196;19.638;2022-11-20T05:48:04;99780.00;;;-0.65;63.67
68380;BME280;57711;53.196;19.638;2022-11-20T05:50:31;99780.09;;;-0.64;63.55
68380;BME280;57711;53.196;19.638;2022-11-20T05:52:59;99776.37;;;-0.64;63.60
68380;BME280;57711;53.196;19.638;2022-11-20T05:55:27;99776.92;;;-0.61;63.73
68380;BME280;57711;53.196;19.638;2022-11-20T05:57:54;99781.25;;;-0.62;63.49
68380;BME280;57711;53.196;19.638;2022-11-20T06:00:22;99784.87;;;-0.70;63.52
68380;BME280;57711;53.196;19.638;2022-11-20T06:02:49;99788.10;;;-0.74;63.46
68380;BME280;57711;53.196;19.638;2022-11-20T06:05:16;99782.02;;;-0.78;63.64
68380;BME280;57711;53.196;19.638;2022-11-20T06:07:43;99778.81;;;-0.77;63.76
68380;BME280;57711;53.196;19.638;2022-11-20T06:10:11;99772.64;;;-0.71;63.78
68380;BME280;57711;53.196;19.638;2022-11-20T06:12:38;99770.15;;;-0.64;63.74
68380;BME280;57711;53.196;19.638;2022-11-20T06:15:05;99770.16;;;-0.60;63.61
68380;BME280;57711;53.196;19.638;2022-11-20T06:17:33;99767.15;;;-0.60;63.49
68380;BME280;57711;53.196;19.638;2022-11-20T06:20:00;99764.53;;;-0.61;63.54
68380;BME280;57711;53.196;19.638;2022-11-20T06:22:27;99767.63;;;-0.59;63.68
68380;BME280;57711;53.196;19.638;2022-11-20T06:24:54;99765.58;;;-0.58;63.69
68380;BME280;57711;53.196;19.638;2022-11-20T06:27:21;99765.36;;;-0.60;63.57
68380;BME280;57711;53.196;19.638;2022-11-20T06:29:48;99764.40;;;-0.59;63.78
68380;BME280;57711;53.196;19.638;2022-11-20T06:32:15;99767.59;;;-0.59;63.66
68380;BME280;57711;53.196;19.638;2022-11-20T06:34:42;99771.60;;;-0.64;63.56
68380;BME280;57711;53.196;19.638;2022-11-20T06:37:10;99771.14;;;-0.73;63.68
68380;BME280;57711;53.196;19.638;2022-11-20T06:39:37;99770.20;;;-0.79;63.57
68380;BME280;57711;53.196;19.638;2022-11-20T06:42:04;99771.08;;;-0.82;63.49
68380;BME280;57711;53.196;19.638;2022-11-20T06:44:31;99769.70;;;-0.83;63.66
68380;BME280;57711;53.196;19.638;2022-11-20T06:46:58;99772.79;;;-0.81;63.65
68380;BME280;57711;53.196;19.638;2022-11-20T06:49:25;99769.84;;;-0.79;63.63
68380;BME280;57711;53.196;19.638;2022-11-20T06:51:52;99768.52;;;-0.77;63.60
68380;BME280;57711;53.196;19.638;2022-11-20T06:54:19;99760.44;;;-0.79;63.76
68380;BME280;57711;53.196;19.638;2022-11-20T06:56:47;99763.92;;;-0.74;63.77
68380;BME280;57711;53.196;19.638;2022-11-20T06:59:14;99762.86;;;-0.74;63.83
68380;BME280;57711;53.196;19.638;2022-11-20T07:01:41;99759.14;;;-0.74;63.75
68380;BME280;57711;53.196;19.638;2022-11-20T07:04:08;99751.98;;;-0.72;63.90
68380;BME280;57711;53.196;19.638;2022-11-20T07:06:36;99751.92;;;-0.75;63.80
68380;BME280;57711;53.196;19.638;2022-11-20T07:09:03;99754.14;;;-0.77;63.93
68380;BME280;57711;53.196;19.638;2022-11-20T07:11:37;99756.02;;;-0.79;63.92
68380;BME280;57711;53.196;19.638;2022-11-20T07:14:04;99758.94;;;-0.77;63.92
68380;BME280;57711;53.196;19.638;2022-11-20T07:16:31;99760.86;;;-0.73;63.78
68380;BME280;57711;53.196;19.638;2022-11-20T07:18:58;99756.56;;;-0.72;63.72
68380;BME280;57711;53.196;19.638;2022-11-20T07:21:25;99759.13;;;-0.67;63.90
68380;BME280;57711;53.196;19.638;2022-11-20T07:23:52;99758.51;;;-0.62;63.91
68380;BME280;57711;53.196;19.638;2022-11-20T07:26:19;99757.88;;;-0.63;63.90
68380;BME280;57711;53.196;19.638;2022-11-20T07:28:46;99756.14;;;-0.64;63.86
68380;BME280;57711;53.196;19.638;2022-11-20T07:31:13;99753.21;;;-0.72;63.74
68380;BME280;57711;53.196;19.638;2022-11-20T07:33:45;99755.52;;;-0.80;63.82
68380;BME280;57711;53.196;19.638;2022-11-20T07:36:13;99749.33;;;-0.80;63.94
68380;BME280;57711;53.196;19.638;2022-11-20T07:38:40;99753.73;;;-0.76;64.09
68380;BME280;57711;53.196;19.638;2022-11-20T07:41:07;99747.02;;;-0.73;64.12
68380;BME280;57711;53.196;19.638;2022-11-20T07:43:34;99753.18;;;-0.68;64.05
68380;BME280;57711;53.196;19.638;2022-11-20T07:46:06;99761.30;;;-0.61;64.01
68380;BME280;57711;53.196;19.638;2022-11-20T07:48:33;99764.34;;;-0.54;64.00
68380;BME280;57711;53.196;19.638;2022-11-20T07:51:01;99765.20;;;-0.50;63.92
68380;BME280;57711;53.196;19.638;2022-11-20T07:53:28;99761.30;;;-0.50;63.88
68380;BME280;57711;53.196;19.638;2022-11-20T07:55:59;99762.55;;;-0.47;63.97
68380;BME280;57711;53.196;19.638;2022-11-20T07:58:28;99761.93;;;-0.45;64.01
68380;BME280;57711;53.196;19.638;2022-11-20T08:00:56;99761.55;;;-0.55;63.81
68380;BME280;57711;53.196;19.638;2022-11-20T08:03:23;99759.58;;;-0.58;64.13
68380;BME280;57711;53.196;19.638;2022-11-20T08:05:51;99753.98;;;-0.56;64.14
68380;BME280;57711;53.196;19.638;2022-11-20T08:08:19;99752.73;;;-0.53;64.13
68380;BME280;57711;53.196;19.638;2022-11-20T08:10:47;99751.80;;;-0.55;64.14
68380;BME280;57711;53.196;19.638;2022-11-20T08:13:14;99753.61;;;-0.52;64.12
68380;BME280;57711;53.196;19.638;2022-11-20T08:16:00;99751.59;;;-0.48;64.04
68380;BME280;57711;53.196;19.638;2022-11-20T08:18:27;99748.12;;;-0.43;64.10
68380;BME280;57711;53.196;19.638;2022-11-20T08:21:02;99748.74;;;-0.44;64.02
68380;BME280;57711;53.196;19.638;2022-11-20T08:23:29;99743.56;;;-0.47;63.92
68380;BME280;57711;53.196;19.638;2022-11-20T08:25:56;99744.90;;;-0.49;64.00
68380;BME280;57711;53.196;19.638;2022-11-20T08:28:24;99741.09;;;-0.48;64.06
68380;BME280;57711;53.196;19.638;2022-11-20T08:30:51;99735.70;;;-0.53;63.99
68380;BME280;57711;53.196;19.638;2022-11-20T08:33:18;99736.07;;;-0.57;64.09
68380;BME280;57711;53.196;19.638;2022-11-20T08:35:45;99733.35;;;-0.52;64.26
68380;BME280;57711;53.196;19.638;2022-11-20T08:38:12;99731.89;;;-0.48;64.33
68380;BME280;57711;53.196;19.638;2022-11-20T08:40:39;99735.64;;;-0.45;64.20
68380;BME280;57711;53.196;19.638;2022-11-20T08:43:06;99735.66;;;-0.46;64.18
68380;BME280;57711;53.196;19.638;2022-11-20T08:45:34;99734.70;;;-0.44;64.16
68380;BME280;57711;53.196;19.638;2022-11-20T08:48:05;99738.27;;;-0.41;64.18
68380;BME280;57711;53.196;19.638;2022-11-20T08:50:32;99731.29;;;-0.36;64.23
68380;BME280;57711;53.196;19.638;2022-11-20T08:53:06;99729.48;;;-0.39;64.04
68380;BME280;57711;53.196;19.638;2022-11-20T08:55:33;99723.35;;;-0.41;64.18
68380;BME280;57711;53.196;19.638;2022-11-20T08:58:06;99720.46;;;-0.37;64.30
68380;BME280;57711;53.196;19.638;2022-11-20T09:00:33;99717.48;;;-0.34;64.31
68380;BME280;57711;53.196;19.638;2022-11-20T09:03:01;99722.48;;;-0.31;64.37
68380;BME280;57711;53.196;19.638;2022-11-20T09:05:28;99717.20;;;-0.32;64.38
68380;BME280;57711;53.196;19.638;2022-11-20T09:07:56;99714.30;;;-0.38;64.29
68380;BME280;57711;53.196;19.638;2022-11-20T09:10:24;99717.33;;;-0.38;64.41
68380;BME280;57711;53.196;19.638;2022-11-20T09:12:52;99714.98;;;-0.38;64.45
68380;BME280;57711;53.196;19.638;2022-11-20T09:15:19;99716.35;;;-0.33;64.41
68380;BME280;57711;53.196;19.638;2022-11-20T09:17:58;99720.02;;;-0.25;64.52
68380;BME280;57711;53.196;19.638;2022-11-20T09:20:27;99718.41;;;-0.18;64.37
68380;BME280;57711;53.196;19.638;2022-11-20T09:22:56;99716.08;;;-0.18;64.35
68380;BME280;57711;53.196;19.638;2022-11-20T09:25:24;99720.30;;;-0.16;64.39
68380;BME280;57711;53.196;19.638;2022-11-20T09:27:57;99718.92;;;-0.17;64.37
68380;BME280;57711;53.196;19.638;2022-11-20T09:30:25;99715.36;;;-0.18;64.40
68380;BME280;57711;53.196;19.638;2022-11-20T09:32:53;99707.09;;;-0.19;64.47
68380;BME280;57711;53.196;19.638;2022-11-20T09:35:20;99701.70;;;-0.18;64.55
68380;BME280;57711;53.196;19.638;2022-11-20T09:37:47;99697.77;;;-0.21;64.43
68380;BME280;57711;53.196;19.638;2022-11-20T09:40:20;99696.92;;;-0.28;64.35
68380;BME280;57711;53.196;19.638;2022-11-20T09:43:10;99692.56;;;-0.30;64.32
68380;BME280;57711;53.196;19.638;2022-11-20T09:46:02;99686.76;;;-0.24;64.41
68380;BME280;57711;53.196;19.638;2022-11-20T09:54:21;99693.95;;;-0.19;64.47
68380;BME280;57711;53.196;19.638;2022-11-20T09:57:02;99690.80;;;-0.17;64.64
68380;BME280;57711;53.196;19.638;2022-11-20T09:59:41;99688.48;;;-0.13;64.68
68380;BME280;57711;53.196;19.638;2022-11-20T10:05:04;99682.98;;;-0.14;64.68
68380;BME280;57711;53.196;19.638;2022-11-20T10:07:39;99681.00;;;-0.10;64.71
68380;BME280;57711;53.196;19.638;2022-11-20T10:10:21;99681.12;;;-0.09;64.69
68380;BME280;57711;53.196;19.638;2022-11-20T10:16:02;99681.60;;;-0.08;64.55
68380;BME280;57711;53.196;19.638;2022-11-20T10:21:12;99680.75;;;-0.06;64.55
68380;BME280;57711;53.196;19.638;2022-11-20T10:26:25;99680.75;;;-0.05;64.68
68380;BME280;57711;53.196;19.638;2022-11-20T10:29:07;99675.59;;;-0.02;64.77
68380;BME280;57711;53.196;19.638;2022-11-20T10:31:39;99674.45;;;-0.01;64.74
68380;BME280;57711;53.196;19.638;2022-11-20T10:37:10;99682.18;;;-0.02;64.74
68380;BME280;57711;53.196;19.638;2022-11-20T10:42:42;99679.96;;;-0.07;64.44
68380;BME280;57711;53.196;19.638;2022-11-20T10:50:48;99673.50;;;-0.06;64.86
68380;BME280;57711;53.196;19.638;2022-11-20T10:53:36;99672.55;;;-0.02;64.90
68380;BME280;57711;53.196;19.638;2022-11-20T10:56:15;99671.94;;;0.04;64.99
68380;BME280;57711;53.196;19.638;2022-11-20T10:58:47;99674.27;;;0.09;65.04
68380;BME280;57711;53.196;19.638;2022-11-20T11:01:17;99673.65;;;0.11;64.84
68380;BME280;57711;53.196;19.638;2022-11-20T11:03:45;99676.54;;;0.10;64.80
68380;BME280;57711;53.196;19.638;2022-11-20T11:08:56;99670.34;;;0.16;64.81
68380;BME280;57711;53.196;19.638;2022-11-20T11:11:28;99670.83;;;0.20;64.80
68380;BME280;57711;53.196;19.638;2022-11-20T11:14:06;99667.33;;;0.19;64.76
68380;BME280;57711;53.196;19.638;2022-11-20T11:16:34;99661.86;;;0.18;64.81
68380;BME280;57711;53.196;19.638;2022-11-20T11:19:12;99653.13;;;0.18;64.83
68380;BME280;57711;53.196;19.638;2022-11-20T11:21:47;99650.39;;;0.16;64.92
68380;BME280;57711;53.196;19.638;2022-11-20T11:24:25;99654.33;;;0.16;64.83
68380;BME280;57711;53.196;19.638;2022-11-20T11:27:14;99651.01;;;0.18;64.98
68380;BME280;57711;53.196;19.638;2022-11-20T11:29:45;99647.27;;;0.18;64.92
68380;BME280;57711;53.196;19.638;2022-11-20T11:32:20;99645.91;;;0.21;64.92
68380;BME280;57711;53.196;19.638;2022-11-20T11:35:03;99642.90;;;0.23;64.74
68380;BME280;57711;53.196;19.638;2022-11-20T11:37:36;99644.52;;;0.29;64.87
68380;BME280;57711;53.196;19.638;2022-11-20T11:40:05;99643.14;;;0.32;64.70
68380;BME280;57711;53.196;19.638;2022-11-20T11:42:57;99643.63;;;0.32;64.74
68380;BME280;57711;53.196;19.638;2022-11-20T11:45:25;99636.26;;;0.34;64.83
68380;BME280;57711;53.196;19.638;2022-11-20T11:47:55;99639.17;;;0.39;64.93
68380;BME280;57711;53.196;19.638;2022-11-20T11:50:25;99635.48;;;0.39;64.84
68380;BME280;57711;53.196;19.638;2022-11-20T11:53:12;99632.62;;;0.35;64.71
68380;BME280;57711;53.196;19.638;2022-11-20T11:55:47;99632.06;;;0.33;64.95
68380;BME280;57711;53.196;19.638;2022-11-20T11:58:41;99629.69;;;0.34;64.89
68380;BME280;57711;53.196;19.638;2022-11-20T12:04:18;99626.62;;;0.25;64.71
68380;BME280;57711;53.196;19.638;2022-11-20T12:06:52;99624.80;;;0.26;64.69
68380;BME280;57711;53.196;19.638;2022-11-20T12:09:34;99623.92;;;0.29;64.80
68380;BME280;57711;53.196;19.638;2022-11-20T12:12:09;99620.89;;;0.32;64.82
68380;BME280;57711;53.196;19.638;2022-11-20T12:14:41;99618.59;;;0.35;64.83
68380;BME280;57711;53.196;19.638;2022-11-20T12:17:11;99614.96;;;0.36;64.90
68380;BME280;57711;53.196;19.638;2022-11-20T12:19:39;99612.39;;;0.38;64.99
68380;BME280;57711;53.196;19.638;2022-11-20T12:22:40;99608.42;;;0.42;65.02
68380;BME280;57711;53.196;19.638;2022-11-20T12:25:27;99612.20;;;0.44;65.09
68380;BME280;57711;53.196;19.638;2022-11-20T12:45:02;99595.45;;;0.51;64.87
68380;BME280;57711;53.196;19.638;2022-11-20T13:05:34;99571.40;;;0.51;65.05
68380;BME280;57711;53.196;19.638;2022-11-20T13:08:14;99569.92;;;0.59;64.98
68380;BME280;57711;53.196;19.638;2022-11-20T13:13:17;99564.70;;;0.66;64.92
68380;BME280;57711;53.196;19.638;2022-11-20T13:15:58;99562.55;;;0.60;64.93
68380;BME280;57711;53.196;19.638;2022-11-20T13:18:29;99558.90;;;0.62;65.03
68380;BME280;57711;53.196;19.638;2022-11-20T13:21:00;99560.77;;;0.63;65.13
68380;BME280;57711;53.196;19.638;2022-11-20T13:23:28;99556.48;;;0.63;65.14
68380;BME280;57711;53.196;19.638;2022-11-20T13:26:19;99554.84;;;0.61;65.12
68380;BME280;57711;53.196;19.638;2022-11-20T13:28:59;99548.45;;;0.58;64.97
68380;BME280;57711;53.196;19.638;2022-11-20T13:31:33;99544.34;;;0.55;65.10
68380;BME280;57711;53.196;19.638;2022-11-20T13:34:03;99543.85;;;0.57;65.12
68380;BME280;57711;53.196;19.638;2022-11-20T13:36:32;99548.51;;;0.63;65.03
68380;BME280;57711;53.196;19.638;2022-11-20T13:39:02;99543.87;;;0.69;64.94
68380;BME280;57711;53.196;19.638;2022-11-20T13:41:37;99541.52;;;0.72;65.05
68380;BME280;57711;53.196;19.638;2022-11-20T13:44:23;99542.67;;;0.77;65.00
68380;BME280;57711;53.196;19.638;2022-11-20T13:46:52;99545.97;;;0.75;64.97
68380;BME280;57711;53.196;19.638;2022-11-20T13:52:26;99540.96;;;0.70;65.11
68380;BME280;57711;53.196;19.638;2022-11-20T14:00:51;99539.34;;;0.55;65.08
68380;BME280;57711;53.196;19.638;2022-11-20T14:03:23;99534.46;;;0.53;65.11
68380;BME280;57711;53.196;19.638;2022-11-20T14:06:16;99532.91;;;0.52;65.10
68380;BME280;57711;53.196;19.638;2022-11-20T14:08:48;99536.61;;;0.53;65.11
68380;BME280;57711;53.196;19.638;2022-11-20T14:11:19;99537.23;;;0.52;65.09
68380;BME280;57711;53.196;19.638;2022-11-20T14:13:57;99533.61;;;0.50;65.09
68380;BME280;57711;53.196;19.638;2022-11-20T14:16:28;99530.42;;;0.49;65.24
68380;BME280;57711;53.196;19.638;2022-11-20T14:18:56;99529.84;;;0.51;65.19
68380;BME280;57711;53.196;19.638;2022-11-20T14:21:28;99523.71;;;0.49;65.31
68380;BME280;57711;53.196;19.638;2022-11-20T14:24:06;99517.69;;;0.48;65.20
68380;BME280;57711;53.196;19.638;2022-11-20T14:26:33;99517.05;;;0.47;65.22
68380;BME280;57711;53.196;19.638;2022-11-20T14:29:01;99512.06;;;0.47;65.25
68380;BME280;57711;53.196;19.638;2022-11-20T14:31:28;99507.27;;;0.48;65.12
68380;BME280;57711;53.196;19.638;2022-11-20T14:33:55;99508.05;;;0.52;65.10
68380;BME280;57711;53.196;19.638;2022-11-20T14:36:25;99508.72;;;0.53;65.17